Fenton, Iowa
Current Conditions -  °F | °C
As of 2:55 AM on Friday 28 Nov 2014 (Local Time) from KAXA Reporting Station
Overcast Overcast  
Wind Chill:   Ceiling: 11000
Heat Index: 16°   Visibility: 10mi
Dew Point:   Wind: 17mph
Humidity: 73%   Direction: 140°SE
Pressure: 30.05"   Gusts: 24mph
Location:  43.22°N, 94.43°W
Report Text: KAXA 280855Z AUTO 14015G21KT 10SM OVC110 M09/M13 A3005 RMK AO2
Loading
Personal Weather Stations






























Interactive Weather Map New forecast layout! Learn more

10-Day Weather Forecast

Advertisements
Track Severe Weather on mobile